createdAt,value
2019-03-21T00:02:05.100Z,63.70
2019-03-21T00:04:34.488Z,63.90
2019-03-21T00:07:04.130Z,63.70
2019-03-21T00:09:33.506Z,63.70
2019-03-21T00:12:11.674Z,64.10
2019-03-21T00:14:46.424Z,64.00
2019-03-21T00:17:35.522Z,63.90
2019-03-21T00:20:12.152Z,64.20
2019-03-21T00:22:41.530Z,64.30
2019-03-21T00:25:19.060Z,64.40
2019-03-21T00:27:48.429Z,64.60
2019-03-21T00:30:24.393Z,64.80
2019-03-21T00:32:55.813Z,65.00
2019-03-21T00:35:25.158Z,65.30
2019-03-21T00:37:54.525Z,65.60
2019-03-21T00:40:30.949Z,65.70
2019-03-21T00:43:04.331Z,65.60
2019-03-21T00:45:33.710Z,66.10
2019-03-21T00:48:05.955Z,65.70
2019-03-21T00:50:35.347Z,66.00
2019-03-21T00:53:05.017Z,65.80
2019-03-21T00:55:44.917Z,66.00
2019-03-21T00:58:14.289Z,66.50
2019-03-21T01:00:47.850Z,66.00
2019-03-21T01:03:17.574Z,66.50
2019-03-21T01:05:46.960Z,66.20
2019-03-21T01:08:16.312Z,66.40
2019-03-21T01:10:45.750Z,66.40
2019-03-21T01:13:15.192Z,66.30
2019-03-21T01:15:45.020Z,66.40
2019-03-21T01:18:14.408Z,66.50
2019-03-21T01:23:19.878Z,66.50
2019-03-21T01:25:56.976Z,66.50
2019-03-21T01:28:26.343Z,66.50
2019-03-21T01:30:55.725Z,66.60
2019-03-21T01:33:25.131Z,66.80
2019-03-21T01:35:54.541Z,66.70
2019-03-21T01:38:23.909Z,67.20
2019-03-21T01:40:57.880Z,67.50
2019-03-21T01:43:27.728Z,67.50
2019-03-21T01:45:57.114Z,67.60
2019-03-21T01:48:26.511Z,67.80
2019-03-21T01:50:55.892Z,67.90
2019-03-21T01:53:25.274Z,67.90
2019-03-21T01:55:54.672Z,68.10
2019-03-21T01:58:24.047Z,68.00
2019-03-21T02:00:58.206Z,68.20
2019-03-21T02:03:27.988Z,68.20
2019-03-21T02:05:57.369Z,68.00
2019-03-21T02:08:26.743Z,67.80
2019-03-21T02:10:56.146Z,68.00
2019-03-21T02:13:25.526Z,68.10
2019-03-21T02:15:55.726Z,68.30
2019-03-21T02:18:25.728Z,68.20
2019-03-21T02:20:55.107Z,68.20
2019-03-21T02:23:25.602Z,68.10
2019-03-21T02:25:55.027Z,68.10
2019-03-21T02:28:24.401Z,68.20
2019-03-21T02:30:54.565Z,68.30
2019-03-21T02:33:33.625Z,68.10
2019-03-21T02:36:06.810Z,68.00
2019-03-21T02:38:36.182Z,67.70
2019-03-21T02:41:17.296Z,67.80
2019-03-21T02:43:46.686Z,67.70
2019-03-21T02:46:18.712Z,67.60
2019-03-21T02:48:48.105Z,67.50
2019-03-21T02:51:17.476Z,67.70
2019-03-21T02:53:46.845Z,67.30
2019-03-21T02:56:22.009Z,67.50
2019-03-21T02:58:51.465Z,67.40
2019-03-21T03:01:20.859Z,67.40
2019-03-21T03:03:50.256Z,67.40
2019-03-21T03:06:19.629Z,67.60
2019-03-21T03:08:49.003Z,67.60
2019-03-21T03:11:22.650Z,67.60
2019-03-21T03:13:52.659Z,67.70
2019-03-21T03:16:24.217Z,67.70
2019-03-21T03:18:54.003Z,67.80
2019-03-21T03:21:23.703Z,67.90
2019-03-21T03:23:53.144Z,67.90
2019-03-21T03:26:22.492Z,67.90
2019-03-21T03:28:51.870Z,67.70
2019-03-21T03:31:21.255Z,67.90
2019-03-21T03:33:50.639Z,67.90
2019-03-21T03:36:20.031Z,67.70
2019-03-21T03:38:49.402Z,67.50
2019-03-21T03:41:23.355Z,67.40
2019-03-21T03:43:52.723Z,67.50
2019-03-21T03:46:22.117Z,67.30
2019-03-21T03:48:51.510Z,67.40
2019-03-21T03:51:20.897Z,67.50
2019-03-21T03:53:50.275Z,67.40
2019-03-21T03:56:19.747Z,67.40
2019-03-21T03:58:56.371Z,67.50
2019-03-21T04:01:26.058Z,67.50
2019-03-21T04:03:55.901Z,67.30
2019-03-21T04:06:25.278Z,67.40
2019-03-21T04:08:54.681Z,67.40
2019-03-21T04:11:24.348Z,67.30
2019-03-21T04:13:53.726Z,67.00
2019-03-21T04:16:23.179Z,67.30
2019-03-21T04:18:52.557Z,67.30
2019-03-21T04:21:21.999Z,67.30
2019-03-21T04:23:51.996Z,67.10
2019-03-21T04:26:36.524Z,67.10
2019-03-21T04:29:05.198Z,67.10
2019-03-21T04:31:34.526Z,66.20
2019-03-21T04:34:08.522Z,66.60
2019-03-21T04:36:37.923Z,66.70
2019-03-21T04:39:10.401Z,66.60
2019-03-21T04:41:42.795Z,66.70
2019-03-21T04:44:12.912Z,66.70
2019-03-21T04:46:42.299Z,66.90
2019-03-21T04:49:11.666Z,67.00
2019-03-21T04:51:41.055Z,66.90
2019-03-21T04:54:10.429Z,67.20
2019-03-21T04:56:39.813Z,67.10
2019-03-21T04:59:09.500Z,67.10
2019-03-21T05:01:38.867Z,67.20
2019-03-21T05:04:08.258Z,67.40
2019-03-21T05:06:38.168Z,67.20
2019-03-21T05:09:10.951Z,67.20
2019-03-21T05:11:40.325Z,67.40
2019-03-21T05:14:09.713Z,67.30
2019-03-21T05:16:39.086Z,67.30
2019-03-21T05:19:08.549Z,67.50
2019-03-21T05:21:37.950Z,67.70
2019-03-21T05:24:09.220Z,67.60
2019-03-21T05:26:39.464Z,68.00
2019-03-21T05:29:08.835Z,67.90
2019-03-21T05:31:38.477Z,68.30
2019-03-21T05:34:08.109Z,69.10
2019-03-21T05:36:37.495Z,68.50
2019-03-21T05:39:10.634Z,68.70
2019-03-21T05:41:40.335Z,69.00
2019-03-21T05:44:35.566Z,68.90
2019-03-21T05:47:04.965Z,68.90
2019-03-21T05:49:34.344Z,68.80
2019-03-21T05:52:04.369Z,69.60
2019-03-21T05:54:33.766Z,69.00
2019-03-21T05:57:03.153Z,69.00
2019-03-21T05:59:32.549Z,69.00
2019-03-21T06:02:02.398Z,69.00
2019-03-21T06:04:31.789Z,69.10
2019-03-21T06:07:14.915Z,69.10
2019-03-21T06:09:44.288Z,69.10
2019-03-21T06:12:13.664Z,68.90
2019-03-21T06:14:56.640Z,68.70
2019-03-21T06:17:26.343Z,68.60
2019-03-21T06:20:09.698Z,68.50
2019-03-21T06:22:52.364Z,68.30
2019-03-21T06:25:53.484Z,67.90
2019-03-21T06:28:23.752Z,67.80
2019-03-21T06:30:53.128Z,67.60
2019-03-21T06:33:22.513Z,67.60
2019-03-21T06:35:51.901Z,67.60
2019-03-21T06:38:21.273Z,67.60
2019-03-21T06:40:51.007Z,67.30
2019-03-21T06:43:20.382Z,67.30
2019-03-21T06:45:49.768Z,67.40
2019-03-21T06:48:19.157Z,67.20
2019-03-21T06:50:48.529Z,67.20
2019-03-21T06:53:17.919Z,67.00
2019-03-21T06:55:47.314Z,66.80
2019-03-21T06:58:16.711Z,66.50
2019-03-21T07:00:46.115Z,66.40
2019-03-21T07:03:16.527Z,66.20
2019-03-21T07:05:46.149Z,66.10
2019-03-21T07:08:15.599Z,66.00
2019-03-21T07:10:44.986Z,65.90
2019-03-21T07:13:14.366Z,65.80
2019-03-21T07:15:43.803Z,65.90
2019-03-21T07:18:13.191Z,65.80
2019-03-21T07:20:42.565Z,66.00
2019-03-21T07:23:11.944Z,65.80
2019-03-21T07:25:41.535Z,65.80
2019-03-21T07:28:10.899Z,65.70
2019-03-21T07:30:41.399Z,65.70
2019-03-21T07:33:10.805Z,65.60
2019-03-21T07:35:40.183Z,65.50
2019-03-21T07:38:09.549Z,65.50
2019-03-21T07:40:38.957Z,65.40
2019-03-21T07:43:08.394Z,65.20
2019-03-21T07:45:37.732Z,65.00
2019-03-21T07:48:07.334Z,64.90
2019-03-21T07:50:36.709Z,65.10
2019-03-21T07:53:06.080Z,65.00
2019-03-21T07:55:35.473Z,65.10
2019-03-21T07:58:04.867Z,65.20
2019-03-21T08:00:34.581Z,65.80
2019-03-21T08:03:03.974Z,65.20
2019-03-21T08:05:40.170Z,65.20
2019-03-21T08:08:04.462Z,65.30
2019-03-21T08:10:34.119Z,65.40
2019-03-21T08:13:03.504Z,65.30
2019-03-21T08:15:32.879Z,65.30
2019-03-21T08:18:02.274Z,65.20
2019-03-21T08:20:31.650Z,65.30
2019-03-21T08:23:01.021Z,65.30
2019-03-21T08:25:30.418Z,65.30
2019-03-21T08:27:59.791Z,65.20
2019-03-21T08:30:35.770Z,65.20
2019-03-21T08:33:06.648Z,65.10
2019-03-21T08:35:36.038Z,65.20
2019-03-21T08:38:05.405Z,65.10
2019-03-21T08:40:34.810Z,65.10
2019-03-21T08:43:04.227Z,65.10
2019-03-21T08:45:33.596Z,65.20
2019-03-21T08:48:03.648Z,65.40
2019-03-21T08:50:33.064Z,65.30
2019-03-21T08:53:02.434Z,65.30
2019-03-21T08:55:32.569Z,65.20
2019-03-21T08:58:01.959Z,65.10
2019-03-21T09:00:34.333Z,65.10
2019-03-21T09:03:02.477Z,65.10
2019-03-21T09:05:31.851Z,65.00
2019-03-21T09:08:01.247Z,65.10
2019-03-21T09:10:30.644Z,65.10
2019-03-21T09:13:00.013Z,65.20
2019-03-21T09:15:29.391Z,65.20
2019-03-21T09:17:59.084Z,65.20
2019-03-21T09:20:28.462Z,65.10
2019-03-21T09:22:57.835Z,64.90
2019-03-21T09:25:27.225Z,64.80
2019-03-21T09:28:02.550Z,64.70
2019-03-21T09:30:27.707Z,64.50
2019-03-21T09:32:57.135Z,64.50
2019-03-21T09:35:27.237Z,64.00
2019-03-21T09:37:56.610Z,63.90
2019-03-21T09:40:26.445Z,63.80
2019-03-21T09:42:56.115Z,63.70
2019-03-21T09:45:25.486Z,63.50
2019-03-21T09:47:54.871Z,63.40
2019-03-21T09:50:28.418Z,63.30
2019-03-21T09:52:57.766Z,62.90
2019-03-21T09:55:27.763Z,62.80
2019-03-21T09:57:57.190Z,62.60
2019-03-21T10:00:37.286Z,62.30
2019-03-21T10:03:07.010Z,62.20
2019-03-21T10:05:36.390Z,62.10
2019-03-21T10:08:06.637Z,62.00
2019-03-21T10:10:36.006Z,61.60
2019-03-21T10:13:06.619Z,61.60
2019-03-21T10:15:36.616Z,61.90
2019-03-21T10:18:06.174Z,61.90
2019-03-21T10:20:35.529Z,61.90
2019-03-21T10:23:05.179Z,62.60
2019-03-21T10:25:34.574Z,61.90
2019-03-21T10:28:03.950Z,62.00
2019-03-21T10:30:42.872Z,61.60
2019-03-21T10:33:15.963Z,61.50
2019-03-21T10:35:45.347Z,61.60
2019-03-21T10:38:15.782Z,61.80
2019-03-21T10:40:45.156Z,61.70
2019-03-21T10:43:14.573Z,61.40
2019-03-21T10:45:44.323Z,61.40
2019-03-21T10:48:13.696Z,61.50
2019-03-21T10:50:43.072Z,61.50
2019-03-21T10:53:12.479Z,62.20
2019-03-21T10:55:42.120Z,61.30
2019-03-21T10:58:11.501Z,61.20
2019-03-21T11:00:40.953Z,61.00
2019-03-21T11:03:10.803Z,61.00
2019-03-21T11:05:40.169Z,60.60
2019-03-21T11:08:10.049Z,60.60
2019-03-21T11:10:39.414Z,60.30
2019-03-21T11:13:08.790Z,60.20
2019-03-21T11:15:38.175Z,60.10
2019-03-21T11:18:07.629Z,60.20
2019-03-21T11:20:39.107Z,60.00
2019-03-21T11:23:09.502Z,60.10
2019-03-21T11:25:38.939Z,60.10
2019-03-21T11:28:09.310Z,60.30
2019-03-21T11:30:42.092Z,60.10
2019-03-21T11:33:11.757Z,60.00
2019-03-21T11:35:41.273Z,60.00
2019-03-21T11:38:10.666Z,60.00
2019-03-21T11:40:41.205Z,59.90
2019-03-21T11:43:11.001Z,59.80
2019-03-21T11:45:40.395Z,59.60
2019-03-21T11:48:09.762Z,59.60
2019-03-21T11:50:39.134Z,59.70
2019-03-21T11:53:08.539Z,59.70
2019-03-21T11:55:37.910Z,59.70
2019-03-21T11:58:07.287Z,59.60
2019-03-21T12:00:44.078Z,59.70
2019-03-21T12:03:07.778Z,59.70
2019-03-21T12:05:37.156Z,59.70
2019-03-21T12:08:06.604Z,59.60
2019-03-21T12:10:35.984Z,59.70
2019-03-21T12:13:05.358Z,59.80
2019-03-21T12:15:35.600Z,59.80
2019-03-21T12:18:04.973Z,59.60
2019-03-21T12:20:34.849Z,59.70
2019-03-21T12:23:04.631Z,59.50
2019-03-21T12:25:34.041Z,59.40
2019-03-21T12:28:03.401Z,59.10
2019-03-21T12:30:36.628Z,59.00
2019-03-21T12:33:06.819Z,59.10
2019-03-21T12:35:36.522Z,59.40
2019-03-21T12:38:06.751Z,58.70
2019-03-21T12:40:36.193Z,58.70
2019-03-21T12:43:07.035Z,59.30
2019-03-21T12:45:36.417Z,58.70
2019-03-21T12:48:06.559Z,58.70
2019-03-21T12:50:36.332Z,58.70
2019-03-21T12:53:06.161Z,58.90
2019-03-21T12:55:35.555Z,59.00
2019-03-21T12:58:04.925Z,59.00
2019-03-21T13:00:40.029Z,58.90
2019-03-21T13:03:09.937Z,59.00
2019-03-21T13:05:39.310Z,58.90
2019-03-21T13:08:09.119Z,59.00
2019-03-21T13:10:38.638Z,58.80
2019-03-21T13:13:08.759Z,58.70
2019-03-21T13:15:38.147Z,58.70
2019-03-21T13:18:08.184Z,58.60
2019-03-21T13:20:37.832Z,58.70
2019-03-21T13:23:07.456Z,59.00
2019-03-21T13:25:36.841Z,58.60
2019-03-21T13:28:06.660Z,58.50
2019-03-21T13:30:36.748Z,58.60
2019-03-21T13:33:06.491Z,58.80
2019-03-21T13:35:35.883Z,58.80
2019-03-21T13:38:06.055Z,58.80
2019-03-21T13:40:35.445Z,58.80
2019-03-21T13:43:05.562Z,58.80
2019-03-21T13:45:35.965Z,58.80
2019-03-21T13:48:05.876Z,58.90
2019-03-21T13:50:35.254Z,59.00
2019-03-21T13:53:17.872Z,59.10
2019-03-21T13:55:36.452Z,59.20
2019-03-21T13:58:05.820Z,59.30
2019-03-21T14:00:35.212Z,59.40
2019-03-21T14:03:04.588Z,59.30
2019-03-21T14:05:33.962Z,59.20
2019-03-21T14:08:03.365Z,59.10
2019-03-21T14:10:32.744Z,59.10
2019-03-21T14:13:02.130Z,59.20
2019-03-21T14:15:32.098Z,59.30
2019-03-21T14:18:01.464Z,59.20
2019-03-21T14:20:30.845Z,59.40
2019-03-21T14:23:00.256Z,59.30
2019-03-21T14:25:29.649Z,59.30
2019-03-21T14:27:59.043Z,59.10
2019-03-21T14:30:28.487Z,59.00
2019-03-21T14:32:58.234Z,58.80
2019-03-21T14:35:27.618Z,58.70
2019-03-21T14:37:57.046Z,58.70
2019-03-21T14:40:26.437Z,58.60
2019-03-21T14:42:55.803Z,58.40
2019-03-21T14:45:25.195Z,58.10
2019-03-21T14:47:55.692Z,58.10
2019-03-21T14:50:25.271Z,58.10
2019-03-21T14:52:54.645Z,58.20
2019-03-21T14:55:24.014Z,58.30
2019-03-21T14:57:53.428Z,58.90
2019-03-21T15:00:23.092Z,57.90
2019-03-21T15:02:52.463Z,58.10
2019-03-21T15:05:21.848Z,58.10
2019-03-21T15:07:51.223Z,58.00
2019-03-21T15:10:21.843Z,58.10
2019-03-21T15:12:51.226Z,58.10
2019-03-21T15:15:20.650Z,58.10
2019-03-21T15:17:49.988Z,58.00
2019-03-21T15:20:19.465Z,57.80
2019-03-21T15:22:48.874Z,57.70
2019-03-21T15:25:18.249Z,57.20
2019-03-21T15:27:47.629Z,57.60
2019-03-21T15:30:21.638Z,57.50
2019-03-21T15:32:50.388Z,57.60
2019-03-21T15:35:20.339Z,57.80
2019-03-21T15:37:49.813Z,57.70
2019-03-21T15:40:19.303Z,57.90
2019-03-21T15:42:48.674Z,57.90
2019-03-21T15:45:23.854Z,58.10
2019-03-21T15:47:50.632Z,58.30
2019-03-21T15:50:33.554Z,58.10
2019-03-21T15:53:03.000Z,58.40
2019-03-21T15:55:32.381Z,58.40
2019-03-21T15:58:01.768Z,58.40
2019-03-21T16:00:42.815Z,58.20
2019-03-21T16:03:14.118Z,58.40
2019-03-21T16:05:43.548Z,58.20
2019-03-21T16:08:12.857Z,58.10
2019-03-21T16:10:42.244Z,58.10
2019-03-21T16:13:11.622Z,58.90
2019-03-21T16:15:40.994Z,58.20
2019-03-21T16:18:10.434Z,58.30
2019-03-21T16:20:39.808Z,58.50
2019-03-21T16:23:09.184Z,58.50
2019-03-21T16:25:38.599Z,58.60
2019-03-21T16:28:07.979Z,58.70
2019-03-21T16:30:37.371Z,58.70
2019-03-21T16:33:06.758Z,58.80
2019-03-21T16:35:36.138Z,59.00
2019-03-21T16:38:05.529Z,59.00
2019-03-21T16:40:34.918Z,59.00
2019-03-21T16:43:05.769Z,59.20
2019-03-21T16:45:35.384Z,59.20
2019-03-21T16:48:08.952Z,59.30
2019-03-21T16:50:37.249Z,59.60
2019-03-21T16:53:07.735Z,59.60
2019-03-21T16:55:37.116Z,59.80
2019-03-21T16:58:06.493Z,59.90
2019-03-21T17:00:35.859Z,60.00
2019-03-21T17:03:05.614Z,60.00
2019-03-21T17:05:35.004Z,60.10
2019-03-21T17:08:11.313Z,60.50
2019-03-21T17:10:35.532Z,60.70
2019-03-21T17:13:06.318Z,60.80
2019-03-21T17:15:35.819Z,61.00
2019-03-21T17:18:05.228Z,61.10
2019-03-21T17:20:34.581Z,61.30
2019-03-21T17:23:05.008Z,61.50
2019-03-21T17:25:34.363Z,61.70
2019-03-21T17:28:03.737Z,61.90
2019-03-21T17:30:33.143Z,62.10
2019-03-21T17:33:02.546Z,62.20
2019-03-21T17:35:31.927Z,62.50
2019-03-21T17:38:01.294Z,62.60
2019-03-21T17:40:30.681Z,63.60
2019-03-21T17:43:00.055Z,63.30
2019-03-21T17:45:29.459Z,63.50
2019-03-21T17:47:58.805Z,63.60
2019-03-21T17:50:28.185Z,63.60
2019-03-21T17:52:57.572Z,63.90
2019-03-21T17:55:27.726Z,64.10
2019-03-21T17:57:57.111Z,64.10
2019-03-21T18:00:28.126Z,64.30
2019-03-21T18:02:57.743Z,64.50
2019-03-21T18:05:27.129Z,64.60
2019-03-21T18:07:56.485Z,64.80
2019-03-21T18:10:34.927Z,64.90
2019-03-21T18:13:05.205Z,64.90
2019-03-21T18:15:34.572Z,65.10
2019-03-21T18:18:04.180Z,65.30
2019-03-21T18:20:33.558Z,65.50
2019-03-21T18:23:02.915Z,65.60
2019-03-21T18:25:32.301Z,65.70
2019-03-21T18:28:01.677Z,65.80
2019-03-21T18:30:31.081Z,66.00
2019-03-21T18:33:00.444Z,66.20
2019-03-21T18:35:29.984Z,66.30
2019-03-21T18:37:59.362Z,66.30
2019-03-21T18:40:28.763Z,66.70
2019-03-21T18:42:58.139Z,66.60
2019-03-21T18:45:27.596Z,66.80
2019-03-21T18:47:56.976Z,66.90
2019-03-21T18:50:26.369Z,67.00
2019-03-21T18:52:55.914Z,67.20
2019-03-21T18:55:26.256Z,68.10
2019-03-21T18:57:57.004Z,67.40
2019-03-21T19:00:26.376Z,67.50
2019-03-21T19:02:55.781Z,67.60
2019-03-21T19:05:25.211Z,67.90
2019-03-21T19:07:54.607Z,67.90
2019-03-21T19:10:23.981Z,68.00
2019-03-21T19:12:53.358Z,68.20
2019-03-21T19:15:22.810Z,68.30
2019-03-21T19:17:52.228Z,68.40
2019-03-21T19:20:21.685Z,68.60
2019-03-21T19:22:51.347Z,68.70
2019-03-21T19:25:21.222Z,68.70
2019-03-21T19:27:50.661Z,68.90
2019-03-21T19:30:21.937Z,69.20
2019-03-21T19:32:51.399Z,69.20
2019-03-21T19:35:20.784Z,69.40
2019-03-21T19:37:50.154Z,69.50
2019-03-21T19:40:21.392Z,69.60
2019-03-21T19:42:50.828Z,69.70
2019-03-21T19:45:20.633Z,69.80
2019-03-21T19:47:50.021Z,70.00
2019-03-21T19:50:21.406Z,70.20
2019-03-21T19:52:50.777Z,70.30
2019-03-21T19:55:30.217Z,70.50
2019-03-21T19:57:51.264Z,70.70
2019-03-21T20:00:23.625Z,70.90
2019-03-21T20:02:53.680Z,71.00
2019-03-21T20:05:23.304Z,71.20
2019-03-21T20:07:52.672Z,71.50
2019-03-21T20:10:23.119Z,71.50
2019-03-21T20:12:52.489Z,71.60
2019-03-21T20:15:21.881Z,72.50
2019-03-21T20:17:51.262Z,71.90
2019-03-21T20:20:20.703Z,72.10
2019-03-21T20:22:50.083Z,72.80
2019-03-21T20:25:20.029Z,72.40
2019-03-21T20:27:49.417Z,72.50
2019-03-21T20:30:21.575Z,72.60
2019-03-21T20:32:50.948Z,72.80
2019-03-21T20:35:20.334Z,72.90
2019-03-21T20:37:49.711Z,73.20
2019-03-21T20:40:20.324Z,73.40
2019-03-21T20:42:49.681Z,73.90
2019-03-21T20:45:21.360Z,74.10
2019-03-21T20:47:51.058Z,74.10
2019-03-21T20:50:23.744Z,74.20
2019-03-21T20:52:53.120Z,74.30
2019-03-21T20:55:22.501Z,74.20
2019-03-21T20:57:51.882Z,74.80
2019-03-21T21:00:23.656Z,74.60
2019-03-21T21:02:55.052Z,74.60
2019-03-21T21:05:24.408Z,74.50
2019-03-21T21:07:53.853Z,74.80
2019-03-21T21:10:23.334Z,74.90
2019-03-21T21:12:52.702Z,75.00
2019-03-21T21:15:22.076Z,75.00
2019-03-21T21:17:51.490Z,75.00
2019-03-21T21:20:20.865Z,75.10
2019-03-21T21:22:50.312Z,75.10
2019-03-21T21:25:20.174Z,75.10
2019-03-21T21:27:50.340Z,75.10
2019-03-21T21:30:23.554Z,75.30
2019-03-21T21:32:52.942Z,75.30
2019-03-21T21:35:22.342Z,75.30
2019-03-21T21:37:51.707Z,75.50
2019-03-21T21:40:21.411Z,75.50
2019-03-21T21:42:50.880Z,75.60
2019-03-21T21:45:20.244Z,75.80
2019-03-21T21:47:49.628Z,75.70
2019-03-21T21:50:19.174Z,75.80
2019-03-21T21:52:50.080Z,76.00
2019-03-21T21:55:19.478Z,76.20
2019-03-21T21:57:48.877Z,76.10
2019-03-21T22:00:21.620Z,76.20
2019-03-21T22:02:51.569Z,76.30
2019-03-21T22:05:21.813Z,76.20
2019-03-21T22:07:51.188Z,76.40
2019-03-21T22:10:20.572Z,76.50
2019-03-21T22:12:50.031Z,76.70
2019-03-21T22:15:19.417Z,76.70
2019-03-21T22:17:48.788Z,76.80
2019-03-21T22:20:18.303Z,76.90
2019-03-21T22:22:47.675Z,77.00
2019-03-21T22:25:17.292Z,77.10
2019-03-21T22:27:46.717Z,77.20
2019-03-21T22:30:20.369Z,77.30
2019-03-21T22:32:49.713Z,77.40
2019-03-21T22:35:19.098Z,77.40
2019-03-21T22:37:48.476Z,77.40
2019-03-21T22:40:19.453Z,77.70
2019-03-21T22:42:48.847Z,77.60
2019-03-21T22:45:18.665Z,77.70
2019-03-21T22:47:50.252Z,77.80
2019-03-21T22:50:19.430Z,77.60
2019-03-21T22:52:48.804Z,77.80
2019-03-21T22:55:18.264Z,78.10
2019-03-21T22:57:47.630Z,78.30
2019-03-21T23:00:42.762Z,78.40
2019-03-21T23:03:12.769Z,78.20
2019-03-21T23:05:42.138Z,78.40
2019-03-21T23:08:12.416Z,78.60
2019-03-21T23:10:41.785Z,78.90
2019-03-21T23:13:11.442Z,78.90
2019-03-21T23:15:40.824Z,78.90
2019-03-21T23:18:10.217Z,79.00
2019-03-21T23:23:15.725Z,79.00
2019-03-21T23:25:45.100Z,78.90
2019-03-21T23:28:14.464Z,78.80
2019-03-21T23:30:43.862Z,78.90
2019-03-21T23:33:13.237Z,78.80
2019-03-21T23:35:42.609Z,78.90
2019-03-21T23:38:11.991Z,79.20
2019-03-21T23:40:41.360Z,79.50
2019-03-21T23:43:10.807Z,79.50
2019-03-21T23:45:40.270Z,79.40
2019-03-21T23:48:09.650Z,79.60
2019-03-21T23:50:39.037Z,79.70
2019-03-21T23:53:08.423Z,79.90
2019-03-21T23:55:37.799Z,80.40
2019-03-21T23:58:07.174Z,80.70
